sensor_id;sensor_type;location;lat;lon;timestamp;P1;durP1;ratioP1;P2;durP2;ratioP2
5585;SDS011;2815;54.094;12.112;2023-07-29T00:02:13;8.43;;;4.68;;
5585;SDS011;2815;54.094;12.112;2023-07-29T00:04:41;6.80;;;4.28;;
5585;SDS011;2815;54.094;12.112;2023-07-29T00:07:09;7.50;;;4.45;;
5585;SDS011;2815;54.094;12.112;2023-07-29T00:09:38;9.30;;;4.72;;
5585;SDS011;2815;54.094;12.112;2023-07-29T00:12:08;9.77;;;5.40;;
5585;SDS011;2815;54.094;12.112;2023-07-29T00:14:36;9.10;;;4.60;;
5585;SDS011;2815;54.094;12.112;2023-07-29T00:17:05;9.27;;;4.75;;
5585;SDS011;2815;54.094;12.112;2023-07-29T00:19:33;9.57;;;5.47;;
5585;SDS011;2815;54.094;12.112;2023-07-29T00:22:02;8.82;;;4.63;;
5585;SDS011;2815;54.094;12.112;2023-07-29T00:24:30;6.82;;;4.60;;
5585;SDS011;2815;54.094;12.112;2023-07-29T00:26:58;7.70;;;4.70;;
5585;SDS011;2815;54.094;12.112;2023-07-29T00:29:28;6.45;;;4.10;;
5585;SDS011;2815;54.094;12.112;2023-07-29T00:31:56;8.82;;;4.13;;
5585;SDS011;2815;54.094;12.112;2023-07-29T00:34:24;6.53;;;3.70;;
5585;SDS011;2815;54.094;12.112;2023-07-29T00:36:52;6.03;;;4.30;;
5585;SDS011;2815;54.094;12.112;2023-07-29T00:39:21;8.52;;;4.90;;
5585;SDS011;2815;54.094;12.112;2023-07-29T00:41:50;11.30;;;5.07;;
5585;SDS011;2815;54.094;12.112;2023-07-29T00:44:20;9.45;;;4.38;;
5585;SDS011;2815;54.094;12.112;2023-07-29T00:46:50;7.03;;;4.28;;
5585;SDS011;2815;54.094;12.112;2023-07-29T00:49:20;7.38;;;4.32;;
5585;SDS011;2815;54.094;12.112;2023-07-29T00:51:49;6.35;;;3.80;;
5585;SDS011;2815;54.094;12.112;2023-07-29T00:54:17;6.53;;;4.20;;
5585;SDS011;2815;54.094;12.112;2023-07-29T00:56:46;6.10;;;3.80;;
5585;SDS011;2815;54.094;12.112;2023-07-29T00:59:14;6.18;;;3.97;;
5585;SDS011;2815;54.094;12.112;2023-07-29T01:01:44;9.23;;;3.75;;
5585;SDS011;2815;54.094;12.112;2023-07-29T01:04:16;6.78;;;3.80;;
5585;SDS011;2815;54.094;12.112;2023-07-29T01:06:46;8.23;;;3.72;;
5585;SDS011;2815;54.094;12.112;2023-07-29T01:09:20;7.13;;;3.75;;
5585;SDS011;2815;54.094;12.112;2023-07-29T01:11:55;7.40;;;3.55;;
5585;SDS011;2815;54.094;12.112;2023-07-29T01:18:47;11.50;;;5.10;;
5585;SDS011;2815;54.094;12.112;2023-07-29T01:21:19;4.63;;;3.10;;
5585;SDS011;2815;54.094;12.112;2023-07-29T01:23:53;5.90;;;3.97;;
5585;SDS011;2815;54.094;12.112;2023-07-29T01:26:22;5.43;;;3.50;;
5585;SDS011;2815;54.094;12.112;2023-07-29T01:28:50;8.70;;;3.95;;
5585;SDS011;2815;54.094;12.112;2023-07-29T01:31:20;10.05;;;3.95;;
5585;SDS011;2815;54.094;12.112;2023-07-29T01:33:56;5.93;;;3.28;;
5585;SDS011;2815;54.094;12.112;2023-07-29T01:36:27;7.45;;;3.35;;
5585;SDS011;2815;54.094;12.112;2023-07-29T01:38:58;6.85;;;3.28;;
5585;SDS011;2815;54.094;12.112;2023-07-29T01:41:27;3.97;;;2.88;;
5585;SDS011;2815;54.094;12.112;2023-07-29T01:43:55;6.78;;;3.50;;
5585;SDS011;2815;54.094;12.112;2023-07-29T01:46:25;4.65;;;3.10;;
5585;SDS011;2815;54.094;12.112;2023-07-29T01:48:53;5.57;;;3.30;;
5585;SDS011;2815;54.094;12.112;2023-07-29T01:51:21;6.10;;;3.60;;
5585;SDS011;2815;54.094;12.112;2023-07-29T01:53:50;8.23;;;3.75;;
5585;SDS011;2815;54.094;12.112;2023-07-29T01:56:21;4.90;;;3.50;;
5585;SDS011;2815;54.094;12.112;2023-07-29T01:58:53;5.65;;;3.63;;
5585;SDS011;2815;54.094;12.112;2023-07-29T02:01:21;8.80;;;3.60;;
5585;SDS011;2815;54.094;12.112;2023-07-29T02:03:50;6.07;;;3.50;;
5585;SDS011;2815;54.094;12.112;2023-07-29T02:06:22;6.30;;;3.40;;
5585;SDS011;2815;54.094;12.112;2023-07-29T02:08:50;5.85;;;3.45;;
5585;SDS011;2815;54.094;12.112;2023-07-29T02:11:21;4.80;;;3.30;;
5585;SDS011;2815;54.094;12.112;2023-07-29T02:13:54;4.95;;;3.50;;
5585;SDS011;2815;54.094;12.112;2023-07-29T02:16:23;6.80;;;3.53;;
5585;SDS011;2815;54.094;12.112;2023-07-29T02:18:51;8.23;;;4.25;;
5585;SDS011;2815;54.094;12.112;2023-07-29T02:21:22;5.07;;;3.67;;
5585;SDS011;2815;54.094;12.112;2023-07-29T02:23:50;5.97;;;3.80;;
5585;SDS011;2815;54.094;12.112;2023-07-29T02:26:20;4.68;;;3.10;;
5585;SDS011;2815;54.094;12.112;2023-07-29T02:28:49;5.65;;;3.40;;
5585;SDS011;2815;54.094;12.112;2023-07-29T02:31:20;8.43;;;4.03;;
5585;SDS011;2815;54.094;12.112;2023-07-29T02:33:49;6.10;;;3.65;;
5585;SDS011;2815;54.094;12.112;2023-07-29T02:36:17;5.03;;;3.38;;
5585;SDS011;2815;54.094;12.112;2023-07-29T02:38:46;5.80;;;3.40;;
5585;SDS011;2815;54.094;12.112;2023-07-29T02:41:14;7.82;;;3.90;;
5585;SDS011;2815;54.094;12.112;2023-07-29T02:43:47;5.95;;;3.65;;
5585;SDS011;2815;54.094;12.112;2023-07-29T02:46:17;5.93;;;3.80;;
5585;SDS011;2815;54.094;12.112;2023-07-29T02:48:45;8.98;;;4.13;;
5585;SDS011;2815;54.094;12.112;2023-07-29T02:51:13;6.72;;;4.03;;
5585;SDS011;2815;54.094;12.112;2023-07-29T02:53:42;7.35;;;4.20;;
5585;SDS011;2815;54.094;12.112;2023-07-29T02:56:10;7.63;;;4.30;;
5585;SDS011;2815;54.094;12.112;2023-07-29T02:58:38;7.88;;;4.10;;
5585;SDS011;2815;54.094;12.112;2023-07-29T03:01:09;6.63;;;4.00;;
5585;SDS011;2815;54.094;12.112;2023-07-29T03:03:38;4.32;;;3.33;;
5585;SDS011;2815;54.094;12.112;2023-07-29T03:06:07;5.03;;;3.67;;
5585;SDS011;2815;54.094;12.112;2023-07-29T03:08:37;8.05;;;3.67;;
5585;SDS011;2815;54.094;12.112;2023-07-29T03:11:05;5.40;;;3.40;;
5585;SDS011;2815;54.094;12.112;2023-07-29T03:13:34;7.03;;;3.47;;
5585;SDS011;2815;54.094;12.112;2023-07-29T03:16:06;7.40;;;3.88;;
5585;SDS011;2815;54.094;12.112;2023-07-29T03:18:38;6.07;;;3.72;;
5585;SDS011;2815;54.094;12.112;2023-07-29T03:21:07;6.90;;;3.92;;
5585;SDS011;2815;54.094;12.112;2023-07-29T03:23:36;6.15;;;3.80;;
5585;SDS011;2815;54.094;12.112;2023-07-29T03:26:04;4.90;;;4.03;;
5585;SDS011;2815;54.094;12.112;2023-07-29T03:28:37;5.75;;;3.80;;
5585;SDS011;2815;54.094;12.112;2023-07-29T03:31:08;6.47;;;4.03;;
5585;SDS011;2815;54.094;12.112;2023-07-29T03:33:39;5.82;;;3.63;;
5585;SDS011;2815;54.094;12.112;2023-07-29T03:36:07;6.85;;;4.00;;
5585;SDS011;2815;54.094;12.112;2023-07-29T03:38:35;5.97;;;3.85;;
5585;SDS011;2815;54.094;12.112;2023-07-29T03:41:07;5.20;;;4.00;;
5585;SDS011;2815;54.094;12.112;2023-07-29T03:43:36;7.10;;;4.28;;
5585;SDS011;2815;54.094;12.112;2023-07-29T03:46:04;7.18;;;4.00;;
5585;SDS011;2815;54.094;12.112;2023-07-29T03:48:39;5.70;;;3.95;;
5585;SDS011;2815;54.094;12.112;2023-07-29T03:51:08;5.07;;;3.38;;
5585;SDS011;2815;54.094;12.112;2023-07-29T03:53:36;8.27;;;4.28;;
5585;SDS011;2815;54.094;12.112;2023-07-29T03:56:04;7.13;;;3.67;;
5585;SDS011;2815;54.094;12.112;2023-07-29T03:58:35;6.15;;;4.20;;
5585;SDS011;2815;54.094;12.112;2023-07-29T04:01:04;7.28;;;3.65;;
5585;SDS011;2815;54.094;12.112;2023-07-29T04:03:33;5.57;;;3.95;;
5585;SDS011;2815;54.094;12.112;2023-07-29T04:06:04;4.47;;;3.53;;
5585;SDS011;2815;54.094;12.112;2023-07-29T04:08:32;4.85;;;3.53;;
5585;SDS011;2815;54.094;12.112;2023-07-29T04:11:00;5.43;;;3.90;;
5585;SDS011;2815;54.094;12.112;2023-07-29T04:13:28;4.68;;;3.58;;
5585;SDS011;2815;54.094;12.112;2023-07-29T04:15:56;5.10;;;3.83;;
5585;SDS011;2815;54.094;12.112;2023-07-29T04:18:25;5.10;;;3.85;;
5585;SDS011;2815;54.094;12.112;2023-07-29T04:20:53;6.97;;;4.35;;
5585;SDS011;2815;54.094;12.112;2023-07-29T04:23:25;9.95;;;3.80;;
5585;SDS011;2815;54.094;12.112;2023-07-29T04:25:53;6.47;;;4.15;;
5585;SDS011;2815;54.094;12.112;2023-07-29T04:28:21;7.25;;;4.05;;
5585;SDS011;2815;54.094;12.112;2023-07-29T04:30:49;6.43;;;4.10;;
5585;SDS011;2815;54.094;12.112;2023-07-29T04:33:20;5.75;;;3.88;;
5585;SDS011;2815;54.094;12.112;2023-07-29T04:35:48;6.65;;;4.00;;
5585;SDS011;2815;54.094;12.112;2023-07-29T04:38:16;5.22;;;3.85;;
5585;SDS011;2815;54.094;12.112;2023-07-29T04:40:46;8.48;;;4.30;;
5585;SDS011;2815;54.094;12.112;2023-07-29T04:43:16;5.88;;;4.25;;
5585;SDS011;2815;54.094;12.112;2023-07-29T04:45:45;5.63;;;4.10;;
5585;SDS011;2815;54.094;12.112;2023-07-29T04:48:15;9.40;;;4.10;;
5585;SDS011;2815;54.094;12.112;2023-07-29T04:50:43;5.03;;;4.05;;
5585;SDS011;2815;54.094;12.112;2023-07-29T04:53:11;6.68;;;4.13;;
5585;SDS011;2815;54.094;12.112;2023-07-29T04:55:41;6.60;;;4.10;;
5585;SDS011;2815;54.094;12.112;2023-07-29T04:58:11;7.70;;;4.22;;
5585;SDS011;2815;54.094;12.112;2023-07-29T05:00:39;6.28;;;3.90;;
5585;SDS011;2815;54.094;12.112;2023-07-29T05:03:08;5.63;;;4.35;;
5585;SDS011;2815;54.094;12.112;2023-07-29T05:05:37;7.32;;;3.75;;
5585;SDS011;2815;54.094;12.112;2023-07-29T05:08:05;5.45;;;4.07;;
5585;SDS011;2815;54.094;12.112;2023-07-29T05:10:34;6.05;;;4.20;;
5585;SDS011;2815;54.094;12.112;2023-07-29T05:13:02;6.32;;;4.72;;
5585;SDS011;2815;54.094;12.112;2023-07-29T05:15:32;5.35;;;4.72;;
5585;SDS011;2815;54.094;12.112;2023-07-29T05:18:01;5.18;;;3.78;;
5585;SDS011;2815;54.094;12.112;2023-07-29T05:20:29;7.65;;;4.72;;
5585;SDS011;2815;54.094;12.112;2023-07-29T05:22:57;7.70;;;4.35;;
5585;SDS011;2815;54.094;12.112;2023-07-29T05:25:27;5.80;;;4.05;;
5585;SDS011;2815;54.094;12.112;2023-07-29T05:27:56;8.50;;;4.00;;
5585;SDS011;2815;54.094;12.112;2023-07-29T05:30:24;6.88;;;4.03;;
5585;SDS011;2815;54.094;12.112;2023-07-29T05:32:56;4.43;;;3.75;;
5585;SDS011;2815;54.094;12.112;2023-07-29T05:35:24;7.00;;;4.53;;
5585;SDS011;2815;54.094;12.112;2023-07-29T05:37:52;6.05;;;4.50;;
5585;SDS011;2815;54.094;12.112;2023-07-29T05:40:21;6.68;;;4.97;;
5585;SDS011;2815;54.094;12.112;2023-07-29T05:42:49;6.65;;;4.45;;
5585;SDS011;2815;54.094;12.112;2023-07-29T05:45:18;12.57;;;5.05;;
5585;SDS011;2815;54.094;12.112;2023-07-29T05:47:46;8.18;;;4.80;;
5585;SDS011;2815;54.094;12.112;2023-07-29T05:50:19;6.82;;;4.75;;
5585;SDS011;2815;54.094;12.112;2023-07-29T05:52:47;6.90;;;4.13;;
5585;SDS011;2815;54.094;12.112;2023-07-29T05:55:15;5.00;;;4.07;;
5585;SDS011;2815;54.094;12.112;2023-07-29T05:57:44;6.13;;;4.00;;
5585;SDS011;2815;54.094;12.112;2023-07-29T06:00:12;7.18;;;4.53;;
5585;SDS011;2815;54.094;12.112;2023-07-29T06:02:40;6.82;;;4.72;;
5585;SDS011;2815;54.094;12.112;2023-07-29T06:07:42;8.00;;;4.30;;
5585;SDS011;2815;54.094;12.112;2023-07-29T06:10:12;6.88;;;4.28;;
5585;SDS011;2815;54.094;12.112;2023-07-29T06:12:44;5.60;;;4.32;;
5585;SDS011;2815;54.094;12.112;2023-07-29T06:15:13;5.25;;;4.22;;
5585;SDS011;2815;54.094;12.112;2023-07-29T06:17:41;6.05;;;4.53;;
5585;SDS011;2815;54.094;12.112;2023-07-29T06:20:11;8.45;;;4.50;;
5585;SDS011;2815;54.094;12.112;2023-07-29T06:22:39;6.25;;;3.92;;
5585;SDS011;2815;54.094;12.112;2023-07-29T06:25:08;8.75;;;4.40;;
5585;SDS011;2815;54.094;12.112;2023-07-29T06:27:37;6.28;;;4.35;;
5585;SDS011;2815;54.094;12.112;2023-07-29T06:30:08;7.13;;;4.38;;
5585;SDS011;2815;54.094;12.112;2023-07-29T06:32:37;6.90;;;4.57;;
5585;SDS011;2815;54.094;12.112;2023-07-29T06:35:05;6.32;;;3.95;;
5585;SDS011;2815;54.094;12.112;2023-07-29T06:37:34;4.72;;;3.85;;
5585;SDS011;2815;54.094;12.112;2023-07-29T06:40:02;5.38;;;4.10;;
5585;SDS011;2815;54.094;12.112;2023-07-29T06:42:32;5.53;;;3.92;;
5585;SDS011;2815;54.094;12.112;2023-07-29T06:45:03;5.47;;;4.50;;
5585;SDS011;2815;54.094;12.112;2023-07-29T06:47:34;6.68;;;4.30;;
5585;SDS011;2815;54.094;12.112;2023-07-29T06:50:03;6.47;;;4.35;;
5585;SDS011;2815;54.094;12.112;2023-07-29T06:52:32;9.27;;;4.13;;
5585;SDS011;2815;54.094;12.112;2023-07-29T06:55:00;5.63;;;3.80;;
5585;SDS011;2815;54.094;12.112;2023-07-29T06:57:28;6.18;;;3.97;;
5585;SDS011;2815;54.094;12.112;2023-07-29T06:59:59;5.50;;;3.75;;
5585;SDS011;2815;54.094;12.112;2023-07-29T07:02:27;5.18;;;3.60;;
5585;SDS011;2815;54.094;12.112;2023-07-29T07:04:55;4.95;;;3.80;;
5585;SDS011;2815;54.094;12.112;2023-07-29T07:07:23;5.32;;;3.47;;
5585;SDS011;2815;54.094;12.112;2023-07-29T07:09:52;6.13;;;4.07;;
5585;SDS011;2815;54.094;12.112;2023-07-29T07:12:20;6.85;;;3.97;;
5585;SDS011;2815;54.094;12.112;2023-07-29T07:14:48;6.10;;;4.13;;
5585;SDS011;2815;54.094;12.112;2023-07-29T07:17:18;6.10;;;4.35;;
5585;SDS011;2815;54.094;12.112;2023-07-29T07:19:46;8.20;;;4.70;;
5585;SDS011;2815;54.094;12.112;2023-07-29T07:22:15;8.40;;;4.63;;
5585;SDS011;2815;54.094;12.112;2023-07-29T07:24:43;6.97;;;4.40;;
5585;SDS011;2815;54.094;12.112;2023-07-29T07:27:12;8.38;;;4.32;;
5585;SDS011;2815;54.094;12.112;2023-07-29T07:29:41;5.15;;;4.22;;
5585;SDS011;2815;54.094;12.112;2023-07-29T07:32:09;7.22;;;4.68;;
5585;SDS011;2815;54.094;12.112;2023-07-29T07:34:39;8.27;;;4.70;;
5585;SDS011;2815;54.094;12.112;2023-07-29T07:37:07;6.10;;;4.35;;
5585;SDS011;2815;54.094;12.112;2023-07-29T07:39:35;10.80;;;5.60;;
5585;SDS011;2815;54.094;12.112;2023-07-29T07:42:03;8.25;;;5.78;;
5585;SDS011;2815;54.094;12.112;2023-07-29T07:44:31;7.43;;;5.55;;
5585;SDS011;2815;54.094;12.112;2023-07-29T07:47:01;6.45;;;5.10;;
5585;SDS011;2815;54.094;12.112;2023-07-29T07:49:30;9.90;;;5.75;;
5585;SDS011;2815;54.094;12.112;2023-07-29T07:52:00;22.80;;;8.73;;
5585;SDS011;2815;54.094;12.112;2023-07-29T07:54:28;9.77;;;5.38;;
5585;SDS011;2815;54.094;12.112;2023-07-29T07:56:55;8.35;;;5.30;;
5585;SDS011;2815;54.094;12.112;2023-07-29T07:59:23;9.35;;;4.63;;
5585;SDS011;2815;54.094;12.112;2023-07-29T08:01:51;7.53;;;5.35;;
5585;SDS011;2815;54.094;12.112;2023-07-29T08:04:19;9.88;;;5.18;;
5585;SDS011;2815;54.094;12.112;2023-07-29T08:06:47;19.75;;;7.97;;
5585;SDS011;2815;54.094;12.112;2023-07-29T08:09:17;10.35;;;5.60;;
5585;SDS011;2815;54.094;12.112;2023-07-29T08:11:45;8.15;;;5.07;;
5585;SDS011;2815;54.094;12.112;2023-07-29T08:14:14;12.30;;;5.13;;
5585;SDS011;2815;54.094;12.112;2023-07-29T08:16:43;9.43;;;4.88;;
5585;SDS011;2815;54.094;12.112;2023-07-29T08:19:11;9.55;;;5.45;;
5585;SDS011;2815;54.094;12.112;2023-07-29T08:21:40;8.50;;;5.15;;
5585;SDS011;2815;54.094;12.112;2023-07-29T08:24:08;9.77;;;5.15;;
5585;SDS011;2815;54.094;12.112;2023-07-29T08:26:38;7.30;;;5.57;;
5585;SDS011;2815;54.094;12.112;2023-07-29T08:29:06;9.75;;;5.75;;
5585;SDS011;2815;54.094;12.112;2023-07-29T08:31:34;13.32;;;6.05;;
5585;SDS011;2815;54.094;12.112;2023-07-29T08:34:02;9.52;;;5.90;;
5585;SDS011;2815;54.094;12.112;2023-07-29T08:36:30;9.48;;;5.85;;
5585;SDS011;2815;54.094;12.112;2023-07-29T08:38:58;7.95;;;5.90;;
5585;SDS011;2815;54.094;12.112;2023-07-29T08:41:29;10.57;;;6.00;;
5585;SDS011;2815;54.094;12.112;2023-07-29T08:46:29;8.77;;;5.80;;
5585;SDS011;2815;54.094;12.112;2023-07-29T08:48:57;10.13;;;6.22;;
5585;SDS011;2815;54.094;12.112;2023-07-29T08:51:26;8.70;;;6.28;;
5585;SDS011;2815;54.094;12.112;2023-07-29T08:53:54;9.77;;;6.50;;
5585;SDS011;2815;54.094;12.112;2023-07-29T08:56:23;9.95;;;6.75;;
5585;SDS011;2815;54.094;12.112;2023-07-29T08:58:51;11.40;;;6.93;;
5585;SDS011;2815;54.094;12.112;2023-07-29T09:01:21;10.18;;;6.70;;
5585;SDS011;2815;54.094;12.112;2023-07-29T09:03:50;9.98;;;7.13;;
5585;SDS011;2815;54.094;12.112;2023-07-29T09:06:18;12.02;;;7.40;;
5585;SDS011;2815;54.094;12.112;2023-07-29T09:08:47;9.88;;;7.43;;
5585;SDS011;2815;54.094;12.112;2023-07-29T09:11:15;12.68;;;7.00;;
5585;SDS011;2815;54.094;12.112;2023-07-29T09:13:44;9.35;;;6.55;;
5585;SDS011;2815;54.094;12.112;2023-07-29T09:16:12;10.32;;;7.03;;
5585;SDS011;2815;54.094;12.112;2023-07-29T09:18:42;10.10;;;6.75;;
5585;SDS011;2815;54.094;12.112;2023-07-29T09:21:10;9.45;;;6.30;;
5585;SDS011;2815;54.094;12.112;2023-07-29T09:23:39;11.85;;;6.05;;
5585;SDS011;2815;54.094;12.112;2023-07-29T09:26:08;8.07;;;6.20;;
5585;SDS011;2815;54.094;12.112;2023-07-29T09:28:37;10.75;;;6.40;;
5585;SDS011;2815;54.094;12.112;2023-07-29T09:31:06;10.70;;;5.90;;
5585;SDS011;2815;54.094;12.112;2023-07-29T09:33:35;8.20;;;6.28;;
5585;SDS011;2815;54.094;12.112;2023-07-29T09:36:08;8.10;;;5.60;;
5585;SDS011;2815;54.094;12.112;2023-07-29T09:38:36;9.52;;;5.53;;
5585;SDS011;2815;54.094;12.112;2023-07-29T09:41:04;8.10;;;5.45;;
5585;SDS011;2815;54.094;12.112;2023-07-29T09:43:33;7.55;;;5.70;;
5585;SDS011;2815;54.094;12.112;2023-07-29T09:46:03;8.38;;;5.65;;
5585;SDS011;2815;54.094;12.112;2023-07-29T09:48:32;9.48;;;5.18;;
5585;SDS011;2815;54.094;12.112;2023-07-29T09:51:10;9.57;;;5.00;;
5585;SDS011;2815;54.094;12.112;2023-07-29T09:53:39;6.38;;;5.10;;
5585;SDS011;2815;54.094;12.112;2023-07-29T09:56:12;7.43;;;5.03;;
5585;SDS011;2815;54.094;12.112;2023-07-29T09:58:41;6.75;;;4.75;;
5585;SDS011;2815;54.094;12.112;2023-07-29T10:01:10;7.05;;;4.57;;
5585;SDS011;2815;54.094;12.112;2023-07-29T10:03:38;6.78;;;4.55;;
5585;SDS011;2815;54.094;12.112;2023-07-29T10:06:07;7.50;;;3.85;;
5585;SDS011;2815;54.094;12.112;2023-07-29T10:08:36;5.88;;;4.28;;
5585;SDS011;2815;54.094;12.112;2023-07-29T10:11:05;5.35;;;4.00;;
5585;SDS011;2815;54.094;12.112;2023-07-29T10:13:35;5.20;;;3.92;;
5585;SDS011;2815;54.094;12.112;2023-07-29T10:16:04;4.57;;;3.58;;
5585;SDS011;2815;54.094;12.112;2023-07-29T10:18:33;7.05;;;4.32;;
5585;SDS011;2815;54.094;12.112;2023-07-29T10:21:01;5.38;;;3.88;;
5585;SDS011;2815;54.094;12.112;2023-07-29T10:23:32;6.68;;;4.15;;
5585;SDS011;2815;54.094;12.112;2023-07-29T10:26:10;5.78;;;4.05;;
5585;SDS011;2815;54.094;12.112;2023-07-29T10:28:39;6.57;;;3.90;;
5585;SDS011;2815;54.094;12.112;2023-07-29T10:31:08;6.10;;;4.05;;
5585;SDS011;2815;54.094;12.112;2023-07-29T10:33:37;4.65;;;4.00;;
5585;SDS011;2815;54.094;12.112;2023-07-29T10:36:05;5.50;;;4.15;;
5585;SDS011;2815;54.094;12.112;2023-07-29T10:38:33;5.53;;;3.88;;
5585;SDS011;2815;54.094;12.112;2023-07-29T10:41:02;6.85;;;3.90;;
5585;SDS011;2815;54.094;12.112;2023-07-29T10:43:33;5.57;;;3.70;;
5585;SDS011;2815;54.094;12.112;2023-07-29T10:46:14;4.50;;;3.97;;
5585;SDS011;2815;54.094;12.112;2023-07-29T10:48:44;7.05;;;3.80;;
5585;SDS011;2815;54.094;12.112;2023-07-29T10:51:22;5.18;;;3.45;;
5585;SDS011;2815;54.094;12.112;2023-07-29T10:53:56;4.32;;;3.50;;
5585;SDS011;2815;54.094;12.112;2023-07-29T10:56:29;5.72;;;3.85;;
5585;SDS011;2815;54.094;12.112;2023-07-29T11:01:58;5.07;;;4.07;;
5585;SDS011;2815;54.094;12.112;2023-07-29T11:04:27;6.35;;;3.67;;
5585;SDS011;2815;54.094;12.112;2023-07-29T11:09:58;7.80;;;3.67;;
5585;SDS011;2815;54.094;12.112;2023-07-29T11:12:37;5.40;;;3.65;;
5585;SDS011;2815;54.094;12.112;2023-07-29T11:15:15;6.60;;;3.50;;
5585;SDS011;2815;54.094;12.112;2023-07-29T11:17:44;5.57;;;3.72;;
5585;SDS011;2815;54.094;12.112;2023-07-29T11:20:14;3.70;;;3.30;;
5585;SDS011;2815;54.094;12.112;2023-07-29T11:22:43;4.45;;;3.35;;
5585;SDS011;2815;54.094;12.112;2023-07-29T11:25:11;4.78;;;3.30;;
5585;SDS011;2815;54.094;12.112;2023-07-29T11:27:40;4.97;;;3.30;;
5585;SDS011;2815;54.094;12.112;2023-07-29T11:30:09;6.43;;;3.30;;
5585;SDS011;2815;54.094;12.112;2023-07-29T11:32:39;3.17;;;2.85;;
5585;SDS011;2815;54.094;12.112;2023-07-29T11:35:09;4.55;;;3.00;;
5585;SDS011;2815;54.094;12.112;2023-07-29T11:37:39;4.80;;;3.50;;
5585;SDS011;2815;54.094;12.112;2023-07-29T11:40:07;6.03;;;3.70;;
5585;SDS011;2815;54.094;12.112;2023-07-29T11:42:37;3.85;;;3.45;;
5585;SDS011;2815;54.094;12.112;2023-07-29T11:45:06;4.80;;;3.28;;
5585;SDS011;2815;54.094;12.112;2023-07-29T11:47:35;6.57;;;4.28;;
5585;SDS011;2815;54.094;12.112;2023-07-29T11:50:06;5.10;;;4.00;;
5585;SDS011;2815;54.094;12.112;2023-07-29T11:52:36;7.07;;;5.03;;
5585;SDS011;2815;54.094;12.112;2023-07-29T11:55:05;7.38;;;5.03;;
5585;SDS011;2815;54.094;12.112;2023-07-29T11:57:33;7.07;;;5.28;;
5585;SDS011;2815;54.094;12.112;2023-07-29T12:00:03;5.47;;;4.47;;
5585;SDS011;2815;54.094;12.112;2023-07-29T12:02:36;17.13;;;3.30;;
5585;SDS011;2815;54.094;12.112;2023-07-29T12:05:07;15.93;;;3.50;;
5585;SDS011;2815;54.094;12.112;2023-07-29T12:07:37;23.67;;;3.72;;
5585;SDS011;2815;54.094;12.112;2023-07-29T12:10:06;16.42;;;3.40;;
5585;SDS011;2815;54.094;12.112;2023-07-29T12:12:37;20.20;;;3.35;;
5585;SDS011;2815;54.094;12.112;2023-07-29T12:15:06;21.77;;;3.10;;
5585;SDS011;2815;54.094;12.112;2023-07-29T12:17:37;25.98;;;3.47;;
5585;SDS011;2815;54.094;12.112;2023-07-29T12:20:10;16.42;;;2.83;;
5585;SDS011;2815;54.094;12.112;2023-07-29T12:22:38;15.25;;;2.88;;
5585;SDS011;2815;54.094;12.112;2023-07-29T12:25:07;13.63;;;2.65;;
5585;SDS011;2815;54.094;12.112;2023-07-29T12:27:36;8.23;;;2.20;;
5585;SDS011;2815;54.094;12.112;2023-07-29T12:30:08;5.82;;;1.90;;
5585;SDS011;2815;54.094;12.112;2023-07-29T12:32:42;7.30;;;1.75;;
5585;SDS011;2815;54.094;12.112;2023-07-29T12:35:14;5.15;;;2.08;;
5585;SDS011;2815;54.094;12.112;2023-07-29T12:37:43;5.47;;;2.08;;
5585;SDS011;2815;54.094;12.112;2023-07-29T12:40:21;4.90;;;2.03;;
5585;SDS011;2815;54.094;12.112;2023-07-29T12:42:50;6.40;;;2.05;;
5585;SDS011;2815;54.094;12.112;2023-07-29T12:45:18;6.20;;;2.53;;
5585;SDS011;2815;54.094;12.112;2023-07-29T12:47:49;4.47;;;2.10;;
5585;SDS011;2815;54.094;12.112;2023-07-29T12:50:19;4.18;;;2.10;;
5585;SDS011;2815;54.094;12.112;2023-07-29T12:52:48;5.85;;;2.45;;
5585;SDS011;2815;54.094;12.112;2023-07-29T12:55:16;9.38;;;2.90;;
5585;SDS011;2815;54.094;12.112;2023-07-29T12:57:49;6.20;;;2.92;;
5585;SDS011;2815;54.094;12.112;2023-07-29T13:00:18;5.72;;;2.40;;
5585;SDS011;2815;54.094;12.112;2023-07-29T13:02:47;4.90;;;2.42;;
5585;SDS011;2815;54.094;12.112;2023-07-29T13:05:15;7.97;;;3.03;;
5585;SDS011;2815;54.094;12.112;2023-07-29T13:07:45;6.55;;;2.97;;
5585;SDS011;2815;54.094;12.112;2023-07-29T13:10:14;8.38;;;3.08;;
5585;SDS011;2815;54.094;12.112;2023-07-29T13:12:42;5.97;;;2.80;;
5585;SDS011;2815;54.094;12.112;2023-07-29T13:15:12;10.82;;;3.35;;
5585;SDS011;2815;54.094;12.112;2023-07-29T13:17:41;9.70;;;3.45;;
5585;SDS011;2815;54.094;12.112;2023-07-29T13:20:09;5.93;;;3.40;;
5585;SDS011;2815;54.094;12.112;2023-07-29T13:22:38;8.57;;;3.55;;
5585;SDS011;2815;54.094;12.112;2023-07-29T13:25:08;5.90;;;3.50;;
5585;SDS011;2815;54.094;12.112;2023-07-29T13:27:37;4.70;;;3.60;;
5585;SDS011;2815;54.094;12.112;2023-07-29T13:30:06;6.63;;;3.40;;
5585;SDS011;2815;54.094;12.112;2023-07-29T13:32:37;5.15;;;3.00;;
5585;SDS011;2815;54.094;12.112;2023-07-29T13:35:06;5.70;;;3.65;;
5585;SDS011;2815;54.094;12.112;2023-07-29T13:37:35;9.05;;;4.10;;
5585;SDS011;2815;54.094;12.112;2023-07-29T13:40:04;6.95;;;3.72;;
5585;SDS011;2815;54.094;12.112;2023-07-29T13:42:36;6.88;;;3.40;;
5585;SDS011;2815;54.094;12.112;2023-07-29T13:45:05;8.75;;;3.80;;
5585;SDS011;2815;54.094;12.112;2023-07-29T13:47:34;6.95;;;3.78;;
5585;SDS011;2815;54.094;12.112;2023-07-29T13:50:04;5.93;;;3.47;;
5585;SDS011;2815;54.094;12.112;2023-07-29T13:52:35;9.67;;;3.60;;
5585;SDS011;2815;54.094;12.112;2023-07-29T13:55:04;6.22;;;2.92;;
5585;SDS011;2815;54.094;12.112;2023-07-29T13:57:33;6.70;;;3.00;;
5585;SDS011;2815;54.094;12.112;2023-07-29T14:00:04;5.53;;;3.38;;
5585;SDS011;2815;54.094;12.112;2023-07-29T14:02:38;5.38;;;3.53;;
5585;SDS011;2815;54.094;12.112;2023-07-29T14:05:15;5.22;;;3.50;;
5585;SDS011;2815;54.094;12.112;2023-07-29T14:07:44;7.63;;;3.67;;
5585;SDS011;2815;54.094;12.112;2023-07-29T14:10:15;5.38;;;3.83;;
5585;SDS011;2815;54.094;12.112;2023-07-29T14:12:46;5.05;;;3.70;;
5585;SDS011;2815;54.094;12.112;2023-07-29T14:15:15;6.07;;;3.70;;
5585;SDS011;2815;54.094;12.112;2023-07-29T14:17:47;8.23;;;4.00;;
5585;SDS011;2815;54.094;12.112;2023-07-29T14:20:19;6.85;;;3.97;;
5585;SDS011;2815;54.094;12.112;2023-07-29T14:22:50;5.80;;;4.40;;
5585;SDS011;2815;54.094;12.112;2023-07-29T14:25:21;6.95;;;4.30;;
5585;SDS011;2815;54.094;12.112;2023-07-29T14:27:54;6.28;;;4.38;;
5585;SDS011;2815;54.094;12.112;2023-07-29T14:30:27;7.57;;;4.90;;
5585;SDS011;2815;54.094;12.112;2023-07-29T14:33:00;8.10;;;4.93;;
5585;SDS011;2815;54.094;12.112;2023-07-29T14:35:30;6.65;;;4.57;;
5585;SDS011;2815;54.094;12.112;2023-07-29T14:37:59;7.32;;;4.35;;
5585;SDS011;2815;54.094;12.112;2023-07-29T14:40:27;7.50;;;4.75;;
5585;SDS011;2815;54.094;12.112;2023-07-29T14:42:59;7.25;;;4.93;;
5585;SDS011;2815;54.094;12.112;2023-07-29T14:45:27;6.70;;;4.68;;
5585;SDS011;2815;54.094;12.112;2023-07-29T14:48:11;6.07;;;4.60;;
5585;SDS011;2815;54.094;12.112;2023-07-29T14:50:41;9.20;;;4.65;;
5585;SDS011;2815;54.094;12.112;2023-07-29T14:53:14;5.47;;;4.30;;
5585;SDS011;2815;54.094;12.112;2023-07-29T14:55:43;8.05;;;4.68;;
5585;SDS011;2815;54.094;12.112;2023-07-29T14:58:15;6.88;;;4.57;;
5585;SDS011;2815;54.094;12.112;2023-07-29T15:00:47;5.85;;;4.80;;
5585;SDS011;2815;54.094;12.112;2023-07-29T15:03:16;7.95;;;4.70;;
5585;SDS011;2815;54.094;12.112;2023-07-29T15:05:45;6.18;;;4.90;;
5585;SDS011;2815;54.094;12.112;2023-07-29T15:08:21;8.38;;;4.63;;
5585;SDS011;2815;54.094;12.112;2023-07-29T15:10:51;6.68;;;4.32;;
5585;SDS011;2815;54.094;12.112;2023-07-29T15:13:24;8.35;;;4.88;;
5585;SDS011;2815;54.094;12.112;2023-07-29T15:15:53;5.10;;;4.10;;
5585;SDS011;2815;54.094;12.112;2023-07-29T15:18:22;6.40;;;3.85;;
5585;SDS011;2815;54.094;12.112;2023-07-29T15:21:04;8.67;;;4.80;;
5585;SDS011;2815;54.094;12.112;2023-07-29T15:23:36;5.70;;;4.03;;
5585;SDS011;2815;54.094;12.112;2023-07-29T15:26:07;7.28;;;4.65;;
5585;SDS011;2815;54.094;12.112;2023-07-29T15:28:38;6.32;;;4.40;;
5585;SDS011;2815;54.094;12.112;2023-07-29T15:34:16;6.05;;;3.92;;